Time;durP1;ratioP1;P1;durP2;ratioP2;P2;SDS_P1;SDS_P2;PMS_P1;PMS_P2;Temp;Humidity;BMP_temperature;BMP_pressure;BME280_temperature;BME280_humidity;BME280_pressure;Samples;Min_cycle;Max_cycle;Signal;HPM_P1;HPM_P2
2022/09/21 08:01:42;;;;;;;9.95;5.03;;;;;;;12.49;80.58;102497.69;5276142;28;20400;-67
2022/09/21 08:04:13;;;;;;;10.77;4.53;;;;;;;12.54;80.13;102500.50;5259441;28;20356;-70
2022/09/21 08:06:46;;;;;;;6.75;3.78;;;;;;;12.51;79.33;102492.69;5255889;28;20033;-69
2022/09/21 08:09:17;;;;;;;5.68;3.80;;;;;;;12.60;79.00;102482.75;5252079;28;20493;-69
2022/09/21 08:11:50;;;;;;;8.02;4.40;;;;;;;12.68;78.35;102485.09;5275575;28;20044;-70
2022/09/21 08:14:22;;;;;;;8.55;3.65;;;;;;;12.69;77.57;102483.13;5246425;28;20049;-70
2022/09/21 08:16:53;;;;;;;9.13;4.03;;;;;;;12.88;78.62;102487.19;5251614;28;20084;-70
2022/09/21 08:19:25;;;;;;;8.07;3.97;;;;;;;12.87;77.74;102482.72;5246963;28;20033;-69
2022/09/21 08:21:56;;;;;;;6.03;3.15;;;;;;;12.96;77.49;102485.84;5256554;28;20385;-69
2022/09/21 08:24:28;;;;;;;6.90;3.70;;;;;;;13.02;76.88;102494.00;5242191;28;20033;-69
2022/09/21 08:26:59;;;;;;;5.75;3.55;;;;;;;13.14;77.46;102495.75;5258808;28;20044;-69
2022/09/21 08:29:30;;;;;;;6.75;3.90;;;;;;;13.23;76.95;102491.38;5271192;28;20426;-69
2022/09/21 08:32:02;;;;;;;5.65;3.20;;;;;;;13.28;75.89;102497.00;5245662;28;20117;-68
2022/09/21 08:34:34;;;;;;;5.55;2.97;;;;;;;13.48;76.29;102499.09;5250771;28;20035;-69
2022/09/21 08:37:05;;;;;;;5.60;3.20;;;;;;;13.42;74.93;102498.22;5237684;28;20022;-70
2022/09/21 08:39:36;;;;;;;9.10;3.72;;;;;;;13.52;74.77;102499.38;5252241;28;20029;-69
2022/09/21 08:42:38;;;;;;;5.00;2.50;;;;;;;13.64;75.12;102497.22;5258709;28;20079;-69
2022/09/21 08:45:15;;;;;;;6.82;3.10;;;;;;;13.74;72.64;102500.06;5263288;28;20037;-70
2022/09/21 08:47:58;;;;;;;8.93;4.80;;;;;;;14.06;77.96;102505.53;5256168;28;20052;-71
2022/09/21 08:50:54;;;;;;;8.80;2.70;;;;;;;14.45;77.23;102504.25;5265715;28;20064;-69
2022/09/21 08:53:37;;;;;;;4.05;2.20;;;;;;;14.56;74.67;102503.19;5278897;28;20067;-70
2022/09/21 08:56:13;;;;;;;8.40;2.47;;;;;;;14.87;74.56;102497.63;5268591;28;20029;-70
2022/09/21 08:58:44;;;;;;;6.43;2.20;;;;;;;14.68;69.89;102500.97;5278166;28;20059;-68
2022/09/21 09:01:18;;;;;;;6.47;2.50;;;;;;;14.64;68.93;102497.03;5266940;28;20072;-68
2022/09/21 09:03:56;;;;;;;6.25;2.00;;;;;;;14.78;70.03;102506.56;5267740;28;20029;-67
2022/09/21 09:06:49;;;;;;;8.73;2.55;;;;;;;15.01;70.75;102501.56;5247080;28;20037;-67
2022/09/21 09:09:27;;;;;;;6.40;2.80;;;;;;;15.16;69.55;102504.34;5258481;28;20029;-72
2022/09/21 09:12:27;;;;;;;10.88;2.95;;;;;;;14.99;67.41;102509.38;5230911;28;20127;-74
2022/09/21 09:15:29;;;;;;;6.47;2.33;;;;;;;15.11;68.03;102512.72;5259756;28;20033;-67
2022/09/21 09:18:31;;;;;;;7.15;2.08;;;;;;;15.12;69.22;102510.75;5250231;28;20021;-69
2022/09/21 09:21:18;;;;;;;4.72;2.30;;;;;;;15.01;66.95;102515.53;5241590;28;20037;-65
2022/09/21 09:23:59;;;;;;;17.38;2.85;;;;;;;15.13;67.58;102518.84;5250950;28;20558;-66
2022/09/21 09:26:43;;;;;;;22.33;3.20;;;;;;;15.23;66.35;102515.22;5242991;28;20057;-66
2022/09/21 09:29:44;;;;;;;4.47;1.80;;;;;;;15.36;65.96;102516.59;5244370;28;20032;-65
2022/09/21 09:32:16;;;;;;;7.40;2.63;;;;;;;15.15;63.67;102518.56;5243637;28;20470;-66
2022/09/21 09:35:06;;;;;;;5.93;1.73;;;;;;;15.17;63.50;102514.38;5243346;28;20030;-66
2022/09/21 09:37:40;;;;;;;5.60;1.80;;;;;;;15.17;63.09;102514.38;5243597;28;20033;-68
2022/09/21 09:40:22;;;;;;;20.65;15.77;;;;;;;15.19;62.77;102520.53;5227050;28;20029;-69
2022/09/21 09:43:13;;;;;;;5.40;2.55;;;;;;;15.23;61.98;102518.00;5243701;28;20029;-68
2022/09/21 09:46:17;;;;;;;7.47;1.70;;;;;;;15.19;61.30;102509.34;5247039;28;20541;-70
2022/09/21 09:49:20;;;;;;;4.22;2.60;;;;;;;15.25;62.00;102520.53;5232188;28;20152;-69
2022/09/21 09:51:52;;;;;;;4.13;1.75;;;;;;;15.26;60.81;102517.44;5243438;28;20356;-72
2022/09/21 09:54:26;;;;;;;3.50;1.95;;;;;;;15.30;59.07;102514.94;5243827;28;20022;-69
2022/09/21 09:57:02;;;;;;;6.07;1.45;;;;;;;15.46;58.89;102516.56;5228213;28;20090;-69
2022/09/21 09:59:36;;;;;;;4.55;1.90;;;;;;;15.56;55.69;102519.34;5260841;28;20051;-74
2022/09/21 10:02:22;;;;;;;5.50;1.20;;;;;;;15.66;57.80;102507.31;5257434;28;20029;-71
2022/09/21 10:04:55;;;;;;;4.28;1.60;;;;;;;15.66;56.56;102508.16;5243506;28;20373;-73
2022/09/21 10:07:44;;;;;;;5.13;2.03;;;;;;;15.60;57.16;102506.50;5243471;28;20498;-68
2022/09/21 10:10:28;;;;;;;4.15;1.23;;;;;;;15.42;54.97;102507.94;5242591;28;20357;-72
2022/09/21 10:13:25;;;;;;;3.72;1.02;;;;;;;15.38;57.27;102514.38;5233174;28;20127;-72
2022/09/21 10:16:13;;;;;;;4.00;1.33;;;;;;;15.34;58.26;102513.25;5235609;28;20083;-68
2022/09/21 10:18:55;;;;;;;3.40;1.60;;;;;;;15.48;60.25;102507.91;5244735;28;20026;-71
2022/09/21 10:21:42;;;;;;;5.15;1.77;;;;;;;15.43;58.15;102505.97;5222700;28;20060;-72
2022/09/21 10:24:25;;;;;;;2.90;2.10;;;;;;;15.36;55.62;102509.03;5226867;28;20018;-77
2022/09/21 10:27:12;;;;;;;4.90;1.80;;;;;;;15.32;55.02;102509.91;5243506;28;20083;-78
2022/09/21 10:29:48;;;;;;;5.45;1.77;;;;;;;15.34;53.90;102507.66;5235334;28;20389;-79
2022/09/21 10:32:25;;;;;;;6.72;1.92;;;;;;;15.43;56.37;102508.75;5237516;28;20040;-78
2022/09/21 10:35:09;;;;;;;11.93;2.35;;;;;;;15.57;58.60;102495.88;5233990;28;20072;-79
2022/09/21 10:37:42;;;;;;;2.38;1.10;;;;;;;15.29;52.36;102500.13;5232291;28;20041;-77
2022/09/21 10:40:20;;;;;;;5.03;1.98;;;;;;;15.35;52.87;102489.78;5235503;28;20557;-78
2022/09/21 10:42:55;;;;;;;2.83;1.30;;;;;;;15.53;52.11;102489.16;5261777;28;20028;-79
2022/09/21 10:45:29;;;;;;;6.45;2.00;;;;;;;15.75;55.23;102493.63;5239036;28;20350;-78
2022/09/21 10:48:07;;;;;;;3.28;1.35;;;;;;;15.79;50.92;102491.91;5244802;28;20037;-78
2022/09/21 10:50:40;;;;;;;4.30;1.70;;;;;;;15.91;54.61;102483.22;5246461;28;20079;-78
2022/09/21 10:53:21;;;;;;;2.67;1.42;;;;;;;16.00;57.94;102482.34;5238809;28;20026;-77
2022/09/21 10:55:57;;;;;;;3.78;1.83;;;;;;;16.04;59.71;102482.59;5267966;28;20468;-74
2022/09/21 10:58:30;;;;;;;5.45;2.50;;;;;;;15.97;57.84;102491.28;5252299;28;20040;-78
2022/09/21 11:01:22;;;;;;;4.97;2.08;;;;;;;16.04;58.26;102488.19;5249236;28;20132;-79
2022/09/21 11:04:02;;;;;;;8.20;1.90;;;;;;;16.09;57.62;102480.59;5262621;28;20018;-78
2022/09/21 11:06:41;;;;;;;6.25;1.45;;;;;;;16.23;58.94;102482.75;5245086;28;20040;-79
2022/09/21 11:09:24;;;;;;;4.18;1.52;;;;;;;16.43;57.89;102479.84;5245395;28;20021;-78
2022/09/21 11:12:05;;;;;;;4.65;1.63;;;;;;;16.37;57.06;102481.00;5243531;28;20095;-79
2022/09/21 11:15:01;;;;;;;4.20;1.40;;;;;;;16.45;54.83;102483.19;5242440;28;20063;-81
2022/09/21 11:17:52;;;;;;;2.03;1.35;;;;;;;16.43;54.37;102491.03;5262018;28;20044;-81
2022/09/21 11:20:48;;;;;;;4.03;1.73;;;;;;;16.51;54.95;102482.06;5240539;28;20067;-81
2022/09/21 11:23:33;;;;;;;1.90;1.10;;;;;;;16.34;53.43;102487.19;5242581;28;20026;-81
2022/09/21 11:26:29;;;;;;;2.35;1.00;;;;;;;16.38;54.71;102484.63;5247009;28;20017;-82
2022/09/21 11:29:07;;;;;;;6.87;2.70;;;;;;;16.29;53.73;102481.63;5253874;28;20032;-81
2022/09/21 11:31:38;;;;;;;10.20;1.75;;;;;;;16.31;56.18;102479.38;5256671;28;20037;-81
2022/09/21 11:34:31;;;;;;;6.28;1.58;;;;;;;16.26;57.02;102482.22;5262235;28;20024;-75
2022/09/21 11:37:12;;;;;;;4.47;1.20;;;;;;;16.14;54.96;102478.91;5254144;28;20370;-81
2022/09/21 11:40:21;;;;;;;3.17;1.48;;;;;;;16.13;55.58;102474.41;5248824;28;20045;-73
2022/09/21 11:43:23;;;;;;;2.17;1.40;;;;;;;16.05;55.87;102468.31;5222002;28;20121;-75
2022/09/21 11:46:14;;;;;;;13.05;9.45;;;;;;;16.36;56.88;102470.09;5239236;28;20029;-74
2022/09/21 11:48:53;;;;;;;3.92;2.20;;;;;;;16.41;55.13;102464.47;5235041;28;20021;-73
2022/09/21 11:52:00;;;;;;;5.15;1.48;;;;;;;16.70;56.00;102462.56;5241593;28;20038;-82
2022/09/21 11:54:46;;;;;;;3.72;1.30;;;;;;;16.74;51.71;102451.59;5242135;28;20044;-75
2022/09/21 11:57:32;;;;;;;6.38;1.63;;;;;;;16.78;56.30;102457.50;5252632;28;20380;-76
2022/09/21 12:00:14;;;;;;;;;;;;;;;16.90;52.51;102463.59;5261385;28;20090;-75
2022/09/21 12:03:22;;;;;;;2.88;1.35;;;;;;;16.89;53.61;102459.91;5256208;28;19917;-75
2022/09/21 12:06:03;;;;;;;2.85;1.27;;;;;;;16.92;50.74;102464.09;5231417;28;20120;-77
2022/09/21 12:08:45;;;;;;;4.30;1.58;;;;;;;17.05;49.82;102459.78;5251654;28;20038;-78
2022/09/21 12:11:43;;;;;;;4.28;1.73;;;;;;;16.96;49.67;102451.19;5252820;28;20029;-77
2022/09/21 12:14:33;;;;;;;1.90;1.00;;;;;;;16.91;50.38;102445.63;5238042;28;20109;-76
2022/09/21 12:17:26;;;;;;;3.88;1.35;;;;;;;16.86;50.61;102454.06;5242038;28;20091;-76
2022/09/21 12:20:19;;;;;;;4.55;1.50;;;;;;;16.82;51.27;102451.03;5248649;28;20033;-76
2022/09/21 12:22:57;;;;;;;5.00;1.45;;;;;;;16.90;49.96;102442.00;5261787;28;20017;-76
2022/09/21 12:25:40;;;;;;;4.18;1.67;;;;;;;17.07;48.97;102443.50;5244888;28;20138;-76
2022/09/21 12:28:16;;;;;;;4.65;1.45;;;;;;;17.27;51.30;102434.88;5240287;28;20036;-76
2022/09/21 12:30:54;;;;;;;5.75;1.67;;;;;;;17.29;47.42;102432.63;5241371;28;20026;-76
2022/09/21 12:33:33;;;;;;;4.28;1.30;;;;;;;17.37;49.34;102433.94;5245669;28;20517;-77
2022/09/21 12:36:13;;;;;;;3.38;1.23;;;;;;;17.45;48.95;102429.66;5240531;28;20032;-77
2022/09/21 12:38:54;;;;;;;3.53;1.23;;;;;;;17.36;47.18;102430.31;5241256;28;20025;-76
2022/09/21 12:41:36;;;;;;;3.33;1.15;;;;;;;17.27;48.55;102429.28;5240825;28;20038;-76
2022/09/21 12:44:21;;;;;;;6.03;1.05;;;;;;;17.32;48.67;102418.00;5258535;28;20032;-76
2022/09/21 12:47:08;;;;;;;3.47;1.40;;;;;;;17.32;49.04;102423.63;5237697;28;20026;-77
2022/09/21 12:49:45;;;;;;;6.53;1.50;;;;;;;17.30;51.46;102417.47;5244347;28;20104;-76
2022/09/21 12:52:21;;;;;;;3.47;1.30;;;;;;;17.41;50.78;102421.00;5245286;28;20381;-79
2022/09/21 12:55:03;;;;;;;3.75;1.63;;;;;;;17.45;49.23;102421.25;5244740;28;20030;-80
2022/09/21 12:58:04;;;;;;;3.47;1.17;;;;;;;17.57;50.38;102407.63;5254491;28;20037;-80
2022/09/21 13:01:17;;;;;;;4.43;1.30;;;;;;;17.72;47.72;102418.66;5262258;28;20043;-80
2022/09/21 13:04:25;;;;;;;6.38;1.48;;;;;;;17.98;48.74;102418.34;5237409;28;20025;-76
2022/09/21 13:07:16;;;;;;;4.68;1.20;;;;;;;18.16;47.92;102414.72;5244780;28;20029;-76
2022/09/21 13:09:50;;;;;;;3.17;1.27;;;;;;;18.16;46.41;102408.28;5245428;28;20029;-76
2022/09/21 13:12:33;;;;;;;3.80;1.20;;;;;;;18.21;46.41;102411.84;5264831;28;20029;-75
2022/09/21 13:15:32;;;;;;;5.70;1.75;;;;;;;18.45;46.80;102405.28;5263259;28;20041;-76
2022/09/21 13:18:05;;;;;;;3.17;1.25;;;;;;;18.52;45.99;102408.53;5249391;28;20512;-70
2022/09/21 13:20:38;;;;;;;3.60;0.90;;;;;;;18.49;46.28;102403.53;5234266;28;20018;-75
2022/09/21 13:23:16;;;;;;;2.25;1.30;;;;;;;18.64;45.51;102400.47;5244200;28;20026;-76
2022/09/21 13:26:00;;;;;;;5.32;1.15;;;;;;;18.65;45.23;102402.13;5243106;28;20497;-76
2022/09/21 13:28:53;;;;;;;53.20;47.42;;;;;;;18.78;44.72;102400.53;5247104;28;20064;-83
2022/09/21 13:31:29;;;;;;;4.55;2.65;;;;;;;18.63;44.13;102406.41;5253716;28;20543;-76
2022/09/21 13:34:19;;;;;;;4.40;1.60;;;;;;;18.51;44.71;102394.78;5254698;28;20029;-77
2022/09/21 13:37:13;;;;;;;4.35;1.30;;;;;;;18.43;45.62;102396.31;5242931;28;20026;-78
2022/09/21 13:39:54;;;;;;;4.22;1.52;;;;;;;18.21;44.80;102395.00;5244913;28;20095;-77
2022/09/21 13:42:31;;;;;;;4.85;1.40;;;;;;;18.24;44.65;102397.19;5246503;28;20439;-76
2022/09/21 13:45:35;;;;;;;4.45;1.40;;;;;;;18.39;45.47;102386.84;5241511;28;20029;-75
2022/09/21 13:48:21;;;;;;;4.00;1.45;;;;;;;18.09;44.57;102394.59;5243261;28;20108;-74
2022/09/21 13:50:56;;;;;;;2.70;1.35;;;;;;;17.98;46.17;102393.09;5246998;28;20539;-76
2022/09/21 13:53:37;;;;;;;;;;;;;;;18.14;46.67;102388.91;5237637;28;20034;-75
2022/09/21 13:56:19;;;;;;;3.45;2.05;;;;;;;17.91;47.55;102390.66;5254401;28;19923;-73
2022/09/21 13:58:53;;;;;;;4.40;2.20;;;;;;;17.76;46.64;102386.03;5248328;28;20021;-75
2022/09/21 14:01:34;;;;;;;6.85;1.73;;;;;;;17.77;47.00;102389.72;5247971;28;20480;-75
2022/09/21 14:04:24;;;;;;;3.55;1.50;;;;;;;17.67;46.71;102376.66;5245954;28;20033;-75
2022/09/21 14:07:01;;;;;;;5.70;2.00;;;;;;;17.54;47.19;102375.41;5232948;28;20053;-74
2022/09/21 14:09:53;;;;;;;4.95;1.92;;;;;;;17.55;48.50;102376.25;5234120;28;20025;-73
2022/09/21 14:12:31;;;;;;;6.78;2.60;;;;;;;17.58;51.99;102365.25;5232625;28;20022;-73
2022/09/21 14:15:30;;;;;;;3.70;1.70;;;;;;;17.67;49.66;102373.84;5242625;28;20017;-75
2022/09/21 14:18:19;;;;;;;3.88;1.85;;;;;;;17.87;47.89;102371.91;5260067;28;20116;-74
2022/09/21 14:21:08;;;;;;;4.38;1.70;;;;;;;17.98;48.19;102365.03;5234213;28;20030;-74
2022/09/21 14:23:40;;;;;;;5.95;1.80;;;;;;;17.91;46.78;102367.38;5250517;28;20029;-72
2022/09/21 14:26:45;;;;;;;5.53;2.22;;;;;;;17.91;46.79;102368.19;5244938;28;20477;-71
2022/09/21 14:29:33;;;;;;;5.28;1.80;;;;;;;18.01;46.52;102367.22;5241686;28;20098;-74
2022/09/21 14:32:15;;;;;;;3.95;1.90;;;;;;;18.03;46.64;102360.16;5242814;28;20082;-72
2022/09/21 14:34:49;;;;;;;3.72;1.85;;;;;;;17.90;45.87;102358.13;5243035;28;20028;-71
2022/09/21 14:37:32;;;;;;;4.53;2.05;;;;;;;17.88;48.56;102349.16;5242510;28;20018;-69
2022/09/21 14:40:18;;;;;;;2.35;1.48;;;;;;;17.88;46.50;102356.75;5245944;28;20025;-69
2022/09/21 14:42:51;;;;;;;6.10;1.77;;;;;;;17.93;46.12;102359.50;5248244;28;20031;-69
2022/09/21 14:45:43;;;;;;;4.82;1.75;;;;;;;18.03;46.26;102350.91;5244907;28;20029;-70
2022/09/21 14:48:29;;;;;;;3.25;1.52;;;;;;;18.10;45.43;102359.78;5242816;28;20113;-70
2022/09/21 14:51:24;;;;;;;4.85;2.10;;;;;;;18.23;45.37;102347.78;5250043;28;20036;-69
2022/09/21 14:54:21;;;;;;;4.22;1.65;;;;;;;18.25;45.48;102348.31;5243006;28;20033;-73
2022/09/21 14:57:36;;;;;;;4.45;2.20;;;;;;;18.24;45.79;102343.81;5242095;28;20477;-73
2022/09/21 15:00:20;;;;;;;3.10;2.13;;;;;;;18.27;45.27;102342.38;5220602;28;20496;-74
2022/09/21 15:03:25;;;;;;;5.13;1.70;;;;;;;18.24;46.57;102338.22;5234281;28;20473;-74
2022/09/21 15:10:54;;;;;;;4.53;2.80;;;;;;;18.29;45.22;102344.91;5242252;28;20116;-73
2022/09/21 15:12:20;;;;;;;6.60;4.35;;;;;;;18.23;45.65;102336.56;5237658;28;20025;-73
2022/09/21 15:15:04;;;;;;;8.32;3.22;;;;;;;18.15;44.49;102328.84;5251218;28;20033;-72
2022/09/21 15:17:35;;;;;;;5.05;2.45;;;;;;;17.98;44.36;102334.16;5244725;28;20024;-73
2022/09/21 15:20:22;;;;;;;8.88;2.60;;;;;;;18.13;45.13;102324.66;5233729;28;20025;-73
2022/09/21 15:22:58;;;;;;;6.45;2.33;;;;;;;17.94;45.66;102319.03;5247668;28;20061;-72
2022/09/21 15:25:32;;;;;;;3.55;2.17;;;;;;;18.02;46.30;102312.75;5242400;28;20067;-72
2022/09/21 15:28:03;;;;;;;6.18;2.63;;;;;;;17.99;46.37;102318.97;5248842;28;20114;-73
2022/09/21 15:30:44;;;;;;;3.15;2.20;;;;;;;18.00;44.76;102312.22;5262488;28;20049;-74
2022/09/21 15:33:16;;;;;;;3.03;2.25;;;;;;;18.08;45.40;102314.34;5245306;28;20029;-74
2022/09/21 15:35:48;;;;;;;4.35;3.70;;;;;;;18.21;45.81;102310.75;5246032;28;20167;-73
2022/09/21 15:38:28;;;;;;;4.22;2.25;;;;;;;18.04;44.98;102313.28;5241925;28;20111;-72
2022/09/21 15:41:00;;;;;;;3.40;2.50;;;;;;;18.06;45.27;102311.00;5256198;28;20025;-73
2022/09/21 15:43:33;;;;;;;4.35;3.42;;;;;;;18.05;46.46;102300.91;5258619;28;20052;-74
2022/09/21 15:46:10;;;;;;;4.25;3.85;;;;;;;18.10;47.47;102308.41;5225593;28;20039;-72
2022/09/21 15:48:44;;;;;;;6.25;4.53;;;;;;;18.00;47.12;102309.44;5258013;28;20469;-73
2022/09/21 15:51:30;;;;;;;7.70;4.45;;;;;;;18.06;47.81;102308.19;5249501;28;20037;-72
2022/09/21 15:54:20;;;;;;;5.75;4.05;;;;;;;17.99;49.19;102302.13;5225778;28;20032;-74
2022/09/21 15:56:54;;;;;;;5.28;3.65;;;;;;;17.96;49.23;102305.53;5253282;28;20056;-73
2022/09/21 15:59:29;;;;;;;4.93;3.58;;;;;;;17.95;50.46;102310.34;5246664;28;20099;-75
2022/09/21 16:02:11;;;;;;;8.10;4.35;;;;;;;17.99;49.19;102307.75;5253538;28;20025;-74
2022/09/21 16:04:49;;;;;;;8.70;5.55;;;;;;;17.92;49.41;102298.88;5239318;28;20125;-74
2022/09/21 16:07:33;;;;;;;4.75;3.92;;;;;;;17.81;50.35;102296.22;5247307;28;20096;-66
2022/09/21 16:10:27;;;;;;;9.10;3.63;;;;;;;17.89;49.94;102302.28;5247634;28;20025;-70
2022/09/21 16:14:52;;;;;;;6.38;3.55;;;;;;;17.83;49.32;102303.50;5250600;28;20032;-74
2022/09/21 16:16:03;;;;;;;5.65;4.28;;;;;;;17.71;48.56;102304.75;5261143;28;20467;-79
2022/09/21 16:18:46;;;;;;;6.00;3.83;;;;;;;17.66;49.04;102301.19;5260213;28;20483;-80
2022/09/21 16:21:32;;;;;;;7.15;4.13;;;;;;;17.48;49.21;102298.06;5259301;28;20040;-80
2022/09/21 16:24:25;;;;;;;7.45;3.55;;;;;;;17.61;49.53;102299.28;5244552;28;20457;-80
2022/09/21 16:31:36;;;;;;;6.50;4.10;;;;;;;17.44;49.97;102304.59;5215739;28;20081;-88
2022/09/21 16:34:34;;;;;;;5.60;3.78;;;;;;;17.36;50.18;102298.53;5220988;28;20038;-87
2022/09/21 16:37:49;;;;;;;6.95;4.15;;;;;;;17.34;50.44;102297.97;5219258;28;20021;-87
2022/09/21 16:40:36;;;;;;;38.67;31.95;;;;;;;17.30;50.34;102301.69;5220724;28;20218;-78
2022/09/21 16:43:09;;;;;;;7.60;6.70;;;;;;;17.16;50.51;102307.19;5236370;28;20025;-81
2022/09/21 16:45:41;;;;;;;8.98;4.30;;;;;;;17.16;51.29;102307.19;5223282;28;20025;-76
2022/09/21 16:48:12;;;;;;;7.75;3.90;;;;;;;17.14;51.23;102306.66;5223936;28;20076;-76
2022/09/21 16:50:56;;;;;;;5.15;4.45;;;;;;;17.06;51.43;102310.94;5223238;28;20030;-79
2022/09/21 16:53:47;;;;;;;11.18;4.88;;;;;;;17.02;51.55;102311.84;5226190;28;20029;-79
2022/09/21 16:56:21;;;;;;;7.45;4.70;;;;;;;16.90;52.32;102304.69;5228470;28;20070;-79
2022/09/21 17:05:51;;;;;;;8.65;4.80;;;;;;;16.73;53.63;102312.69;5229305;28;20025;-80
2022/09/21 17:08:23;;;;;;;9.55;4.88;;;;;;;16.72;54.27;102311.03;5242596;28;20461;-81
2022/09/21 17:11:24;;;;;;;6.55;5.35;;;;;;;16.71;54.62;102318.56;5241561;28;20041;-80
2022/09/21 17:14:15;;;;;;;10.25;5.55;;;;;;;16.63;55.11;102307.19;5233098;28;20029;-78
2022/09/21 17:17:09;;;;;;;9.25;4.28;;;;;;;16.51;55.54;102311.22;5232621;28;20026;-79
2022/09/21 17:19:51;;;;;;;7.25;4.70;;;;;;;16.45;56.22;102309.59;5211821;28;20409;-79
2022/09/21 17:23:06;;;;;;;8.05;4.93;;;;;;;16.48;56.25;102303.38;5223336;28;20075;-80
2022/09/21 17:25:44;;;;;;;8.48;5.47;;;;;;;16.28;56.48;102300.78;5222977;28;20370;-79
2022/09/21 17:28:28;;;;;;;10.90;5.55;;;;;;;16.27;56.87;102310.31;5236090;28;20550;-80
